Terminal Aerodrome Forecast
Issued by NWS Central Illinois

Home | Current Version | Previous Version | Text Only | Print | Product List | Glossary On
Versions: 1 2 3 4 5 6 7 8 9 10 11 12 13 14 15 16 17 18
825
FTUS43 KILX 232321
TAFPIA
TAF
KPIA 232321Z 2400/2424 30007KT P6SM FEW040 FEW200
     FM240300 34004KT P6SM FEW040 FEW250
      TEMPO 2409/2413 4SM BR
     FM241300 36004KT P6SM SCT030=

USA.gov is the U.S. government's official web portal to all federal, state and local government web resources and services.